Time;durP1;ratioP1;P1;durP2;ratioP2;P2;SDS_P1;SDS_P2;PMS_P1;PMS_P2;Temp;Humidity;BMP_temperature;BMP_pressure;BME280_temperature;BME280_humidity;BME280_pressure;Samples;Min_cycle;Max_cycle;Signal;HPM_P1;HPM_P2
2024/04/10 00:00:37;;;;;;;6.25;1.50;;;;;;;;;;5433538;26;20025;-78
2024/04/10 00:03:22;;;;;;;3.55;1.20;;;;;;;;;;5418062;26;20015;-78
2024/04/10 00:06:09;;;;;;;3.47;1.67;;;;;;;;;;5427445;26;20325;-78
2024/04/10 00:08:54;;;;;;;2.45;1.27;;;;;;;;;;5452337;26;20047;-79
2024/04/10 00:11:39;;;;;;;4.40;1.50;;;;;;;;;;5434211;26;20068;-79
2024/04/10 00:14:24;;;;;;;5.70;1.95;;;;;;;;;;5443003;26;19998;-79
2024/04/10 00:17:09;;;;;;;2.67;1.73;;;;;;;;;;5449533;26;19998;-79
2024/04/10 00:19:55;;;;;;;11.95;1.40;;;;;;;;;;5422983;26;20049;-79
2024/04/10 00:22:40;;;;;;;2.15;1.10;;;;;;;;;;5423661;26;20018;-79
2024/04/10 00:25:25;;;;;;;1.63;1.02;;;;;;;;;;5425395;26;20007;-80
2024/04/10 00:28:10;;;;;;;3.75;1.30;;;;;;;;;;5395070;26;20007;-79
2024/04/10 00:30:56;;;;;;;4.40;1.77;;;;;;;;;;5401147;26;20017;-79
2024/04/10 00:33:41;;;;;;;3.03;1.17;;;;;;;;;;5451693;26;20043;-79
2024/04/10 00:36:26;;;;;;;7.32;1.40;;;;;;;;;;5418736;26;20404;-79
2024/04/10 00:39:12;;;;;;;3.70;1.05;;;;;;;;;;5419313;26;20009;-79
2024/04/10 00:41:57;;;;;;;3.53;1.65;;;;;;;;;;5419971;26;20006;-79
2024/04/10 00:44:46;;;;;;;4.35;1.42;;;;;;;;;;5446900;26;19990;-79
2024/04/10 00:47:32;;;;;;;2.88;1.23;;;;;;;;;;5455074;26;20002;-78
2024/04/10 00:50:17;;;;;;;2.20;1.88;;;;;;;;;;5453547;26;20063;-78
2024/04/10 00:53:02;;;;;;;4.90;1.52;;;;;;;;;;5435915;26;20006;-78
2024/04/10 00:55:48;;;;;;;3.83;1.27;;;;;;;;;;5434686;26;20063;-78
2024/04/10 00:58:33;;;;;;;3.40;1.80;;;;;;;;;;5447168;26;20009;-78
2024/04/10 01:01:19;;;;;;;3.45;1.15;;;;;;;;;;5445652;26;20017;-78
2024/04/10 01:04:04;;;;;;;4.75;1.33;;;;;;;;;;5447447;26;20011;-79
2024/04/10 01:06:49;;;;;;;2.78;1.80;;;;;;;;;;5430570;26;20437;-78
2024/04/10 01:09:36;;;;;;;2.35;1.13;;;;;;;;;;5435127;26;20030;-78
2024/04/10 01:12:21;;;;;;;4.78;1.90;;;;;;;;;;5430358;26;19995;-78
2024/04/10 01:15:07;;;;;;;3.97;1.38;;;;;;;;;;5433085;26;19994;-78
2024/04/10 01:17:52;;;;;;;5.85;1.63;;;;;;;;;;5455043;26;19998;-78
2024/04/10 01:20:37;;;;;;;4.40;1.42;;;;;;;;;;5454464;26;19998;-78
2024/04/10 01:23:22;;;;;;;3.00;1.20;;;;;;;;;;5442215;26;20079;-77
2024/04/10 01:26:08;;;;;;;3.40;1.50;;;;;;;;;;5440469;26;19994;-79
2024/04/10 01:28:53;;;;;;;3.42;1.23;;;;;;;;;;5455237;26;19990;-79
2024/04/10 01:31:38;;;;;;;2.85;1.20;;;;;;;;;;5454106;26;20070;-80
2024/04/10 01:34:24;;;;;;;4.30;1.20;;;;;;;;;;5431905;26;20009;-78
2024/04/10 01:37:09;;;;;;;2.88;1.50;;;;;;;;;;5421012;26;20005;-79
2024/04/10 01:39:54;;;;;;;3.60;1.35;;;;;;;;;;5423189;26;20003;-79
2024/04/10 01:42:43;;;;;;;4.07;1.60;;;;;;;;;;5449966;26;20017;-79
2024/04/10 01:45:28;;;;;;;4.73;1.20;;;;;;;;;;5435385;26;20006;-79
2024/04/10 01:48:14;;;;;;;7.72;1.63;;;;;;;;;;5470748;26;20291;-79
2024/04/10 01:50:59;;;;;;;4.55;1.27;;;;;;;;;;5417091;26;19998;-78
2024/04/10 01:53:44;;;;;;;5.05;1.40;;;;;;;;;;5434504;26;20009;-79
2024/04/10 01:56:29;;;;;;;3.42;1.40;;;;;;;;;;5432917;26;20007;-79
2024/04/10 01:59:15;;;;;;;4.70;1.38;;;;;;;;;;5454982;26;20040;-79
2024/04/10 02:02:00;;;;;;;4.32;1.50;;;;;;;;;;5447600;26;19999;-79
2024/04/10 02:04:45;;;;;;;2.30;1.38;;;;;;;;;;5436398;26;20013;-79
2024/04/10 02:07:30;;;;;;;2.13;1.33;;;;;;;;;;5450459;26;20074;-79
2024/04/10 02:10:16;;;;;;;5.63;1.55;;;;;;;;;;5435832;26;19999;-78
2024/04/10 02:13:01;;;;;;;5.30;1.70;;;;;;;;;;5429705;26;20108;-79
2024/04/10 02:15:46;;;;;;;2.33;1.52;;;;;;;;;;5453181;26;19990;-79
2024/04/10 02:18:31;;;;;;;4.32;1.70;;;;;;;;;;5443206;26;20006;-79
2024/04/10 02:21:17;;;;;;;2.85;1.55;;;;;;;;;;5435656;26;19995;-79
2024/04/10 02:24:02;;;;;;;3.85;2.10;;;;;;;;;;5447766;26;20048;-78
2024/04/10 02:26:48;;;;;;;3.33;1.52;;;;;;;;;;5451200;26;20438;-78
2024/04/10 02:29:33;;;;;;;3.97;1.35;;;;;;;;;;5432111;26;20008;-78
2024/04/10 02:32:18;;;;;;;2.63;1.50;;;;;;;;;;5458297;26;20010;-79
2024/04/10 02:35:03;;;;;;;7.78;2.13;;;;;;;;;;5456372;26;20377;-78
2024/04/10 02:37:50;;;;;;;4.97;1.30;;;;;;;;;;5451972;26;19998;-78
2024/04/10 02:40:35;;;;;;;3.75;1.80;;;;;;;;;;5421659;26;19994;-79
2024/04/10 02:43:21;;;;;;;3.70;1.75;;;;;;;;;;5418415;26;19999;-79
2024/04/10 02:46:06;;;;;;;3.30;1.45;;;;;;;;;;5425867;26;20034;-79
2024/04/10 02:48:51;;;;;;;5.70;1.70;;;;;;;;;;5434821;26;20067;-79
2024/04/10 02:51:36;;;;;;;5.85;2.08;;;;;;;;;;5422101;26;19995;-79
2024/04/10 02:54:22;;;;;;;3.92;1.40;;;;;;;;;;5433529;26;20006;-79
2024/04/10 02:57:07;;;;;;;3.63;1.50;;;;;;;;;;5456148;26;19998;-79
2024/04/10 02:59:52;;;;;;;2.67;1.30;;;;;;;;;;5436158;26;20030;-79
2024/04/10 03:02:37;;;;;;;5.70;1.70;;;;;;;;;;5438734;26;20013;-79
2024/04/10 03:05:23;;;;;;;4.20;1.50;;;;;;;;;;5423855;26;20036;-79
2024/04/10 03:08:10;;;;;;;2.47;1.40;;;;;;;;;;5438417;26;19998;-79
2024/04/10 03:10:55;;;;;;;3.65;1.50;;;;;;;;;;5417175;26;19998;-79
2024/04/10 03:13:40;;;;;;;2.88;1.40;;;;;;;;;;5420625;26;20072;-79
2024/04/10 03:16:26;;;;;;;3.28;1.38;;;;;;;;;;5450938;26;20009;-78
2024/04/10 03:19:14;;;;;;;4.78;1.52;;;;;;;;;;5417064;26;20067;-79
2024/04/10 03:21:59;;;;;;;6.75;1.75;;;;;;;;;;5445634;26;20433;-79
2024/04/10 03:24:44;;;;;;;3.88;1.70;;;;;;;;;;5432751;26;20006;-79
2024/04/10 03:27:30;;;;;;;8.23;1.83;;;;;;;;;;5433296;26;20006;-78
2024/04/10 03:30:15;;;;;;;2.72;1.55;;;;;;;;;;5447624;26;20039;-79
2024/04/10 03:33:01;;;;;;;5.60;2.20;;;;;;;;;;5433435;26;20051;-77
2024/04/10 03:35:46;;;;;;;4.15;1.38;;;;;;;;;;5448263;26;20008;-78
2024/04/10 03:38:31;;;;;;;3.58;1.30;;;;;;;;;;5445416;26;20008;-78
2024/04/10 03:41:16;;;;;;;2.38;1.27;;;;;;;;;;5453090;26;20076;-77
2024/04/10 03:44:04;;;;;;;8.05;1.77;;;;;;;;;;5444798;26;20558;-78
2024/04/10 03:46:50;;;;;;;6.72;1.77;;;;;;;;;;5433270;26;20005;-78
2024/04/10 03:49:35;;;;;;;3.47;1.40;;;;;;;;;;5453132;26;19990;-78
2024/04/10 03:52:20;;;;;;;1.85;1.50;;;;;;;;;;5438394;26;20011;-79
2024/04/10 03:55:05;;;;;;;5.47;1.38;;;;;;;;;;5422526;26;20151;-77
2024/04/10 03:57:50;;;;;;;6.72;1.83;;;;;;;;;;5431166;26;19995;-78
2024/04/10 04:00:36;;;;;;;5.13;1.52;;;;;;;;;;5446600;26;20329;-79
2024/04/10 04:03:21;;;;;;;8.10;2.30;;;;;;;;;;5444211;26;20027;-79
2024/04/10 04:06:06;;;;;;;5.35;1.80;;;;;;;;;;5452477;26;20013;-79
2024/04/10 04:08:51;;;;;;;4.15;1.20;;;;;;;;;;5432987;26;20005;-79
2024/04/10 04:11:37;;;;;;;3.58;1.33;;;;;;;;;;5448193;26;20072;-78
2024/04/10 04:14:22;;;;;;;4.68;1.60;;;;;;;;;;5438044;26;20009;-79
2024/04/10 04:17:07;;;;;;;4.53;1.33;;;;;;;;;;5419234;26;19995;-79
2024/04/10 04:19:53;;;;;;;3.22;1.23;;;;;;;;;;5443644;26;20002;-78
2024/04/10 04:22:38;;;;;;;2.75;1.60;;;;;;;;;;5430606;26;20619;-78
2024/04/10 04:25:23;;;;;;;8.75;1.67;;;;;;;;;;5439651;26;20002;-77
2024/04/10 04:28:08;;;;;;;2.65;1.50;;;;;;;;;;5425644;26;20002;-77
2024/04/10 04:30:54;;;;;;;6.22;1.70;;;;;;;;;;5455040;26;20009;-78
2024/04/10 04:33:39;;;;;;;2.25;1.70;;;;;;;;;;5423248;26;20344;-77
2024/04/10 04:36:24;;;;;;;4.10;2.15;;;;;;;;;;5444624;26;19998;-77
2024/04/10 04:39:13;;;;;;;3.42;2.25;;;;;;;;;;5435374;26;20002;-77
2024/04/10 04:41:58;;;;;;;6.40;1.60;;;;;;;;;;5418981;26;20027;-77
2024/04/10 04:44:43;;;;;;;6.25;2.33;;;;;;;;;;5434684;26;20002;-77
2024/04/10 04:47:29;;;;;;;4.60;1.55;;;;;;;;;;5448563;26;19998;-78
2024/04/10 04:50:15;;;;;;;5.68;1.48;;;;;;;;;;5446346;26;19994;-78
2024/04/10 04:53:01;;;;;;;2.88;1.50;;;;;;;;;;5427593;26;20007;-78
2024/04/10 04:55:46;;;;;;;3.63;1.63;;;;;;;;;;5454655;26;20048;-77
2024/04/10 04:58:31;;;;;;;5.78;1.85;;;;;;;;;;5422815;26;20010;-77
2024/04/10 05:01:16;;;;;;;7.05;1.77;;;;;;;;;;5451944;26;20006;-78
2024/04/10 05:07:05;;;;;;;6.13;1.75;;;;;;;;;;5436079;26;20433;-77
2024/04/10 05:09:51;;;;;;;5.63;1.75;;;;;;;;;;5450868;26;20031;-80
2024/04/10 05:12:41;;;;;;;7.97;2.15;;;;;;;;;;5434742;26;20403;-79
2024/04/10 05:15:26;;;;;;;4.82;1.92;;;;;;;;;;5422204;26;20079;-79
2024/04/10 05:18:11;;;;;;;5.57;2.05;;;;;;;;;;5437429;26;20418;-79
2024/04/10 05:20:56;;;;;;;5.18;2.10;;;;;;;;;;5449184;26;20415;-78
2024/04/10 05:23:42;;;;;;;6.68;2.38;;;;;;;;;;5471695;26;19994;-79
2024/04/10 05:26:27;;;;;;;5.45;2.17;;;;;;;;;;5433854;26;20014;-81
2024/04/10 05:29:13;;;;;;;6.20;2.90;;;;;;;;;;5444099;26;20034;-81
2024/04/10 05:32:01;;;;;;;4.05;1.88;;;;;;;;;;5443275;26;20038;-79
2024/04/10 05:34:46;;;;;;;6.53;2.03;;;;;;;;;;5420933;26;20014;-79
2024/04/10 05:37:31;;;;;;;8.55;2.30;;;;;;;;;;5426142;26;20009;-78
2024/04/10 05:40:17;;;;;;;10.68;2.05;;;;;;;;;;5432048;26;20096;-80
2024/04/10 05:43:03;;;;;;;6.13;1.50;;;;;;;;;;5431298;26;20010;-80
2024/04/10 05:45:52;;;;;;;6.35;2.33;;;;;;;;;;5443097;26;20592;-79
2024/04/10 05:48:38;;;;;;;4.20;2.10;;;;;;;;;;5437201;26;19998;-82
2024/04/10 05:51:23;;;;;;;3.70;1.60;;;;;;;;;;5436396;26;20008;-81
2024/04/10 05:54:08;;;;;;;5.45;2.20;;;;;;;;;;5439493;26;19995;-79
2024/04/10 05:56:53;;;;;;;9.00;2.17;;;;;;;;;;5437501;26;20038;-79
2024/04/10 05:59:39;;;;;;;6.57;2.30;;;;;;;;;;5430082;26;19999;-79
2024/04/10 06:02:27;;;;;;;7.65;2.05;;;;;;;;;;5441219;26;20013;-79
2024/04/10 06:05:12;;;;;;;7.40;2.65;;;;;;;;;;5412341;26;20070;-77
2024/04/10 06:07:57;;;;;;;8.13;2.42;;;;;;;;;;5443769;26;20409;-78
2024/04/10 06:10:49;;;;;;;7.65;2.08;;;;;;;;;;5429758;26;20843;-78
2024/04/10 06:13:35;;;;;;;5.78;2.30;;;;;;;;;;5424595;26;20011;-78
2024/04/10 06:16:20;;;;;;;11.65;3.55;;;;;;;;;;5435465;26;20077;-79
2024/04/10 06:19:05;;;;;;;5.88;2.30;;;;;;;;;;5421897;26;20010;-79
2024/04/10 06:21:50;;;;;;;4.85;2.03;;;;;;;;;;5426690;26;20009;-81
2024/04/10 06:24:35;;;;;;;8.07;2.20;;;;;;;;;;5439567;26;20009;-81
2024/04/10 06:27:21;;;;;;;7.22;1.98;;;;;;;;;;5432483;26;19999;-81
2024/04/10 06:30:07;;;;;;;8.70;1.92;;;;;;;;;;5432279;26;19999;-79
2024/04/10 06:32:52;;;;;;;11.38;1.98;;;;;;;;;;5434226;26;20013;-82
2024/04/10 06:35:37;;;;;;;7.88;2.15;;;;;;;;;;5430798;26;20003;-80
2024/04/10 06:38:22;;;;;;;9.35;2.05;;;;;;;;;;5436969;26;19999;-78
2024/04/10 06:41:08;;;;;;;7.40;1.95;;;;;;;;;;5433621;26;19999;-77
2024/04/10 06:43:53;;;;;;;5.60;1.63;;;;;;;;;;5398000;26;20021;-81
2024/04/10 06:46:38;;;;;;;7.15;2.30;;;;;;;;;;5430704;26;20082;-81
2024/04/10 06:49:27;;;;;;;4.28;2.22;;;;;;;;;;5420030;26;20910;-80
2024/04/10 06:52:12;;;;;;;14.98;3.38;;;;;;;;;;5434382;26;19995;-81
2024/04/10 06:54:57;;;;;;;9.65;2.60;;;;;;;;;;5427299;26;20066;-83
2024/04/10 06:57:42;;;;;;;11.43;2.58;;;;;;;;;;5426686;26;20030;-79
2024/04/10 07:00:28;;;;;;;7.80;2.55;;;;;;;;;;5433672;26;20005;-79
2024/04/10 07:03:13;;;;;;;7.38;2.78;;;;;;;;;;5440966;26;20003;-81
2024/04/10 07:06:09;;;;;;;7.70;2.22;;;;;;;;;;5433586;26;20083;-78
2024/04/10 07:08:55;;;;;;;9.18;2.50;;;;;;;;;;5439202;26;20003;-80
2024/04/10 07:11:43;;;;;;;12.30;2.25;;;;;;;;;;5428248;26;20002;-80
2024/04/10 07:14:32;;;;;;;7.78;2.45;;;;;;;;;;5436762;26;20005;-79
2024/04/10 07:17:17;;;;;;;12.50;2.33;;;;;;;;;;5433722;26;20009;-80
2024/04/10 07:20:02;;;;;;;16.92;2.88;;;;;;;;;;5438499;26;20002;-79
2024/04/10 07:22:48;;;;;;;15.13;3.08;;;;;;;;;;5435670;26;20002;-80
2024/04/10 07:25:33;;;;;;;8.35;2.78;;;;;;;;;;5427322;26;20071;-79
2024/04/10 07:28:19;;;;;;;11.70;3.35;;;;;;;;;;5437185;26;20014;-79
2024/04/10 07:31:04;;;;;;;9.77;2.83;;;;;;;;;;5428439;26;20002;-80
2024/04/10 07:33:50;;;;;;;6.70;2.33;;;;;;;;;;5431441;26;19998;-80
2024/04/10 07:36:37;;;;;;;11.93;3.03;;;;;;;;;;5430383;26;19998;-80
2024/04/10 07:39:22;;;;;;;7.97;2.28;;;;;;;;;;5425150;26;20412;-80
2024/04/10 07:42:09;;;;;;;10.73;2.75;;;;;;;;;;5425599;26;19995;-80
2024/04/10 07:44:54;;;;;;;8.98;2.63;;;;;;;;;;5426691;26;20080;-80
2024/04/10 07:47:42;;;;;;;10.35;2.10;;;;;;;;;;5424353;26;20464;-79
2024/04/10 07:50:27;;;;;;;10.55;2.67;;;;;;;;;;5439325;26;20021;-80
2024/04/10 07:53:12;;;;;;;9.77;2.10;;;;;;;;;;5438282;26;20444;-80
2024/04/10 07:55:58;;;;;;;7.45;2.75;;;;;;;;;;5432699;26;20013;-80
2024/04/10 07:58:43;;;;;;;13.55;2.63;;;;;;;;;;5435592;26;20014;-81
2024/04/10 08:01:28;;;;;;;8.25;2.65;;;;;;;;;;5441302;26;20006;-81
2024/04/10 08:04:13;;;;;;;7.95;2.38;;;;;;;;;;5425862;26;20006;-81
2024/04/10 08:06:59;;;;;;;10.65;2.45;;;;;;;;;;5432919;26;20006;-82
2024/04/10 08:09:44;;;;;;;11.23;2.45;;;;;;;;;;5430933;26;20084;-79
2024/04/10 08:12:30;;;;;;;15.23;2.72;;;;;;;;;;5429268;26;20457;-80
2024/04/10 08:15:15;;;;;;;16.17;2.83;;;;;;;;;;5424437;26;20006;-81
2024/04/10 08:18:00;;;;;;;11.10;2.72;;;;;;;;;;5428891;26;20488;-81
2024/04/10 08:20:45;;;;;;;10.50;3.08;;;;;;;;;;5428414;26;19998;-82
2024/04/10 08:23:31;;;;;;;13.32;2.65;;;;;;;;;;5427469;26;19999;-79
2024/04/10 08:26:17;;;;;;;10.82;4.25;;;;;;;;;;5429887;26;20015;-79
2024/04/10 08:29:03;;;;;;;10.35;2.80;;;;;;;;;;5439696;26;20013;-78
2024/04/10 08:31:48;;;;;;;14.60;3.15;;;;;;;;;;5438102;26;20010;-80
2024/04/10 08:34:34;;;;;;;12.20;2.85;;;;;;;;;;5428407;26;20104;-81
2024/04/10 08:37:19;;;;;;;12.25;3.55;;;;;;;;;;5429037;26;20019;-81
2024/04/10 08:40:04;;;;;;;10.80;2.53;;;;;;;;;;5424586;26;20014;-82
2024/04/10 08:42:51;;;;;;;10.98;3.38;;;;;;;;;;5441147;26;20022;-81
2024/04/10 08:45:36;;;;;;;12.90;2.63;;;;;;;;;;5424522;26;20011;-79
2024/04/10 08:48:22;;;;;;;11.68;2.60;;;;;;;;;;5448623;26;20013;-80
2024/04/10 08:51:11;;;;;;;10.20;3.03;;;;;;;;;;5422882;26;20047;-80
2024/04/10 08:53:58;;;;;;;11.80;2.40;;;;;;;;;;5439696;26;20648;-81
2024/04/10 08:56:43;;;;;;;13.35;2.17;;;;;;;;;;5429302;26;20010;-80
2024/04/10 08:59:29;;;;;;;11.93;2.58;;;;;;;;;;5429357;26;20556;-79
2024/04/10 09:02:14;;;;;;;12.57;3.47;;;;;;;;;;5430732;26;20026;-80
2024/04/10 09:04:59;;;;;;;10.80;2.88;;;;;;;;;;5424737;26;20018;-79
2024/04/10 09:07:44;;;;;;;11.32;2.58;;;;;;;;;;5434357;26;20034;-80
2024/04/10 09:10:30;;;;;;;8.40;2.65;;;;;;;;;;5430989;26;20365;-80
2024/04/10 09:13:15;;;;;;;13.60;2.45;;;;;;;;;;5435747;26;20002;-77
2024/04/10 09:16:00;;;;;;;10.45;2.70;;;;;;;;;;5431121;26;19995;-79
2024/04/10 09:18:47;;;;;;;9.45;2.33;;;;;;;;;;5431139;26;20019;-79
2024/04/10 09:21:32;;;;;;;19.80;2.53;;;;;;;;;;5425925;26;20016;-77
2024/04/10 09:24:22;;;;;;;8.20;2.35;;;;;;;;;;5435071;26;20071;-80
2024/04/10 09:27:09;;;;;;;11.30;2.83;;;;;;;;;;5431410;26;19999;-79
2024/04/10 09:30:00;;;;;;;9.70;2.72;;;;;;;;;;5440874;26;20011;-80
2024/04/10 09:32:45;;;;;;;8.80;2.30;;;;;;;;;;5438855;26;20002;-79
2024/04/10 09:35:31;;;;;;;7.47;2.13;;;;;;;;;;5442090;26;19994;-79
2024/04/10 09:38:16;;;;;;;11.30;2.55;;;;;;;;;;5435199;26;20020;-79
2024/04/10 09:41:05;;;;;;;6.35;1.80;;;;;;;;;;5442246;26;20010;-79
2024/04/10 09:43:54;;;;;;;11.03;2.00;;;;;;;;;;5424604;26;20341;-80
2024/04/10 09:46:42;;;;;;;6.87;1.80;;;;;;;;;;5431029;26;20262;-79
2024/04/10 09:49:28;;;;;;;9.48;2.58;;;;;;;;;;5423247;26;20329;-80
2024/04/10 09:52:14;;;;;;;13.45;2.35;;;;;;;;;;5430824;26;19998;-80
2024/04/10 09:55:03;;;;;;;8.73;2.58;;;;;;;;;;5424259;26;20006;-79
2024/04/10 09:57:50;;;;;;;9.48;2.20;;;;;;;;;;5422383;26;20003;-80
2024/04/10 10:00:35;;;;;;;7.63;2.17;;;;;;;;;;5431806;26;19995;-79
2024/04/10 10:03:25;;;;;;;7.38;2.25;;;;;;;;;;5429214;26;20011;-78
2024/04/10 10:06:11;;;;;;;8.98;2.45;;;;;;;;;;5431777;26;20017;-77
2024/04/10 10:08:59;;;;;;;7.30;1.80;;;;;;;;;;5436115;26;20010;-79
2024/04/10 10:11:54;;;;;;;9.63;2.67;;;;;;;;;;5429200;26;20082;-81
2024/04/10 10:14:40;;;;;;;7.18;1.95;;;;;;;;;;5436911;26;20011;-82
2024/04/10 10:17:26;;;;;;;7.82;2.63;;;;;;;;;;5434171;26;20045;-83
2024/04/10 10:20:21;;;;;;;7.00;2.25;;;;;;;;;;5424161;26;20045;-84
2024/04/10 10:23:07;;;;;;;6.65;2.20;;;;;;;;;;5449695;26;20006;-84
2024/04/10 10:25:52;;;;;;;4.57;2.08;;;;;;;;;;5435593;26;20050;-76
2024/04/10 10:28:39;;;;;;;7.93;3.08;;;;;;;;;;5430833;26;20027;-83
2024/04/10 10:31:24;;;;;;;5.25;2.40;;;;;;;;;;5439260;26;19998;-77
2024/04/10 10:34:14;;;;;;;10.02;1.92;;;;;;;;;;5433044;26;20013;-78
2024/04/10 10:37:06;;;;;;;7.25;1.73;;;;;;;;;;5427298;26;19999;-78
2024/04/10 10:39:53;;;;;;;5.18;2.08;;;;;;;;;;5437506;26;19999;-78
2024/04/10 10:42:38;;;;;;;8.60;1.90;;;;;;;;;;5443866;26;20043;-78
2024/04/10 10:45:23;;;;;;;7.53;2.08;;;;;;;;;;5434471;26;20489;-78
2024/04/10 10:48:14;;;;;;;6.82;1.95;;;;;;;;;;5434298;26;20002;-78
2024/04/10 10:51:02;;;;;;;6.30;1.85;;;;;;;;;;5453143;26;19998;-78
2024/04/10 10:53:47;;;;;;;7.07;1.75;;;;;;;;;;5451675;26;19998;-79
2024/04/10 10:56:34;;;;;;;6.50;1.55;;;;;;;;;;5429024;26;20007;-79
2024/04/10 10:59:24;;;;;;;9.80;2.35;;;;;;;;;;5447370;26;20464;-79
2024/04/10 11:02:14;;;;;;;5.88;1.90;;;;;;;;;;5423873;26;19995;-78
2024/04/10 11:05:05;;;;;;;4.40;1.48;;;;;;;;;;5443335;26;20484;-78
2024/04/10 11:07:57;;;;;;;9.38;1.98;;;;;;;;;;5430978;26;19995;-80
2024/04/10 11:10:46;;;;;;;7.45;2.60;;;;;;;;;;5433092;26;20050;-80
2024/04/10 11:13:31;;;;;;;11.30;3.05;;;;;;;;;;5429012;26;20010;-80
2024/04/10 11:16:31;;;;;;;9.00;2.15;;;;;;;;;;5428296;26;20038;-79
2024/04/10 11:19:16;;;;;;;9.60;2.17;;;;;;;;;;5445712;26;19990;-80
2024/04/10 11:22:02;;;;;;;4.97;1.77;;;;;;;;;;5431091;26;20046;-81
2024/04/10 11:26:24;;;;;;;4.22;1.60;;;;;;;;;;5549021;25;20194;-81
2024/04/10 11:29:09;;;;;;;4.93;1.50;;;;;;;;;;5508653;25;20008;-82
2024/04/10 11:31:55;;;;;;;8.05;2.63;;;;;;;;;;5494295;25;20069;-80
2024/04/10 11:34:40;;;;;;;7.88;1.70;;;;;;;;;;5504855;25;19990;-78
2024/04/10 11:37:25;;;;;;;4.95;1.80;;;;;;;;;;5507157;25;20008;-78
2024/04/10 11:40:13;;;;;;;5.50;1.63;;;;;;;;;;5481881;25;20029;-79
2024/04/10 11:42:59;;;;;;;9.35;2.63;;;;;;;;;;5498957;25;20110;-78
2024/04/10 11:45:46;;;;;;;9.20;2.42;;;;;;;;;;5502931;25;20005;-78
2024/04/10 11:48:31;;;;;;;7.78;2.38;;;;;;;;;;5505564;25;19993;-77
2024/04/10 11:51:16;;;;;;;5.03;1.70;;;;;;;;;;5506397;25;20001;-77
2024/04/10 11:54:01;;;;;;;6.57;2.65;;;;;;;;;;5508505;25;19999;-78
2024/04/10 11:56:47;;;;;;;4.78;1.35;;;;;;;;;;5494969;25;19997;-79
2024/04/10 11:59:32;;;;;;;5.18;1.60;;;;;;;;;;5502593;25;19997;-78
2024/04/10 12:02:17;;;;;;;6.07;1.70;;;;;;;;;;5498728;25;20008;-79
2024/04/10 12:05:06;;;;;;;9.50;2.28;;;;;;;;;;5505149;25;20009;-78
2024/04/10 12:07:52;;;;;;;9.97;1.73;;;;;;;;;;5506957;25;20317;-78
2024/04/10 12:10:38;;;;;;;4.10;1.52;;;;;;;;;;5508026;25;20226;-78
2024/04/10 12:13:24;;;;;;;5.25;1.65;;;;;;;;;;5502681;25;20342;-79
2024/04/10 12:16:10;;;;;;;5.18;1.40;;;;;;;;;;5481119;25;20010;-79
2024/04/10 12:18:55;;;;;;;5.60;1.70;;;;;;;;;;5491521;25;20001;-80
2024/04/10 12:21:41;;;;;;;6.75;1.55;;;;;;;;;;5481282;25;20034;-78
2024/04/10 12:24:26;;;;;;;5.18;1.55;;;;;;;;;;5496017;25;19993;-79
2024/04/10 12:27:11;;;;;;;9.10;1.67;;;;;;;;;;5488865;25;20000;-79
2024/04/10 12:29:57;;;;;;;4.25;1.65;;;;;;;;;;5503592;25;19997;-79
2024/04/10 12:32:42;;;;;;;3.85;1.48;;;;;;;;;;5495914;25;20073;-79
2024/04/10 12:38:31;;;;;;;5.90;1.58;;;;;;;;;;5464114;25;20060;-78
2024/04/10 12:41:16;;;;;;;6.43;1.70;;;;;;;;;;5447127;25;20470;-77
2024/04/10 12:44:02;;;;;;;6.22;1.45;;;;;;;;;;5467395;26;20394;-79
2024/04/10 12:46:55;;;;;;;6.68;2.10;;;;;;;;;;5465358;25;20664;-81
2024/04/10 12:49:40;;;;;;;4.00;1.58;;;;;;;;;;5468043;26;20025;-81
2024/04/10 12:52:26;;;;;;;5.90;1.77;;;;;;;;;;5468745;25;20006;-82
2024/04/10 12:55:11;;;;;;;7.10;1.77;;;;;;;;;;5473509;26;20438;-82
2024/04/10 12:57:57;;;;;;;8.25;2.15;;;;;;;;;;5471749;25;20014;-80
2024/04/10 13:00:43;;;;;;;5.47;1.85;;;;;;;;;;5492591;25;20043;-79
2024/04/10 13:03:31;;;;;;;6.57;1.90;;;;;;;;;;5468091;26;20009;-79
2024/04/10 13:06:16;;;;;;;6.25;1.73;;;;;;;;;;5468564;26;20002;-78
2024/04/10 13:09:03;;;;;;;6.97;2.13;;;;;;;;;;5470836;26;20033;-78
2024/04/10 13:11:48;;;;;;;5.90;1.77;;;;;;;;;;5476984;25;20098;-79
2024/04/10 13:14:34;;;;;;;6.15;1.95;;;;;;;;;;5475260;25;19995;-77
2024/04/10 13:17:19;;;;;;;5.88;1.95;;;;;;;;;;5479033;26;20398;-78
2024/04/10 13:20:04;;;;;;;8.55;2.15;;;;;;;;;;5460581;25;19990;-78
2024/04/10 13:22:50;;;;;;;4.88;1.70;;;;;;;;;;5484600;26;20042;-78
2024/04/10 13:25:35;;;;;;;4.82;1.67;;;;;;;;;;5463994;25;19994;-78
2024/04/10 13:28:20;;;;;;;7.60;2.20;;;;;;;;;;5472081;26;19998;-78
2024/04/10 13:31:05;;;;;;;8.70;2.58;;;;;;;;;;5479143;25;20000;-77
2024/04/10 13:33:55;;;;;;;4.93;1.60;;;;;;;;;;5460584;26;20002;-78
2024/04/10 13:36:40;;;;;;;9.13;1.90;;;;;;;;;;5467350;26;20020;-78
2024/04/10 13:39:25;;;;;;;6.43;1.63;;;;;;;;;;5471004;25;20013;-78
2024/04/10 13:42:10;;;;;;;7.63;1.85;;;;;;;;;;5471096;25;20010;-77
2024/04/10 13:44:56;;;;;;;5.25;1.67;;;;;;;;;;5474333;26;19998;-77
2024/04/10 13:47:42;;;;;;;3.67;1.45;;;;;;;;;;5466853;25;19997;-79
2024/04/10 13:50:27;;;;;;;9.75;1.50;;;;;;;;;;5481560;26;19997;-78
2024/04/10 13:53:12;;;;;;;8.93;1.60;;;;;;;;;;5464476;25;20001;-78
2024/04/10 13:56:04;;;;;;;5.47;2.15;;;;;;;;;;5461449;26;19998;-78
2024/04/10 13:58:50;;;;;;;6.20;1.98;;;;;;;;;;5479465;26;20013;-78
2024/04/10 14:01:36;;;;;;;5.95;1.73;;;;;;;;;;5456430;25;20001;-79
2024/04/10 14:04:21;;;;;;;7.60;1.85;;;;;;;;;;5474531;26;20075;-77
2024/04/10 14:07:06;;;;;;;6.35;1.73;;;;;;;;;;5477190;25;20012;-79
2024/04/10 14:09:51;;;;;;;7.28;1.88;;;;;;;;;;5485400;25;20079;-78
2024/04/10 14:12:37;;;;;;;4.15;1.73;;;;;;;;;;5482081;26;20008;-78
2024/04/10 14:15:23;;;;;;;5.68;1.60;;;;;;;;;;5461537;26;20032;-79
2024/04/10 14:18:08;;;;;;;6.15;2.40;;;;;;;;;;5478242;26;20398;-78
2024/04/10 14:20:57;;;;;;;4.85;1.92;;;;;;;;;;5466631;25;20344;-79
2024/04/10 14:23:43;;;;;;;3.92;1.75;;;;;;;;;;5464573;26;20016;-79
2024/04/10 14:26:29;;;;;;;8.65;2.17;;;;;;;;;;5476614;25;20001;-78
2024/04/10 14:29:14;;;;;;;6.00;2.10;;;;;;;;;;5474366;26;20002;-79
2024/04/10 14:31:59;;;;;;;6.88;1.80;;;;;;;;;;5483285;26;20033;-77
2024/04/10 14:34:45;;;;;;;5.97;1.65;;;;;;;;;;5472690;26;20026;-78
2024/04/10 14:37:30;;;;;;;7.95;2.05;;;;;;;;;;5455010;25;20020;-78
2024/04/10 14:40:16;;;;;;;11.10;2.47;;;;;;;;;;5476525;26;20001;-78
2024/04/10 14:43:02;;;;;;;9.02;2.22;;;;;;;;;;5477186;26;19998;-78
2024/04/10 14:45:48;;;;;;;6.88;2.63;;;;;;;;;;5464634;26;20639;-77
2024/04/10 14:48:35;;;;;;;6.75;1.73;;;;;;;;;;5458505;25;20089;-77
2024/04/10 14:51:23;;;;;;;9.23;2.63;;;;;;;;;;5482897;25;20335;-77
2024/04/10 14:54:08;;;;;;;6.03;2.38;;;;;;;;;;5474733;25;20022;-77
2024/04/10 14:56:53;;;;;;;9.07;2.63;;;;;;;;;;5456996;26;20068;-78
2024/04/10 14:59:38;;;;;;;5.53;1.70;;;;;;;;;;5466227;26;20006;-78
2024/04/10 15:02:24;;;;;;;8.20;2.05;;;;;;;;;;5477119;25;20064;-78
2024/04/10 15:05:09;;;;;;;6.43;1.95;;;;;;;;;;5489445;26;20263;-78
2024/04/10 15:07:54;;;;;;;5.00;1.65;;;;;;;;;;5459645;25;20013;-77
2024/04/10 15:10:41;;;;;;;4.65;1.52;;;;;;;;;;5471662;25;20457;-76
2024/04/10 15:13:30;;;;;;;8.77;1.90;;;;;;;;;;5464234;26;19994;-76
2024/04/10 15:16:15;;;;;;;5.80;1.87;;;;;;;;;;5473261;26;20089;-75
2024/04/10 15:19:00;;;;;;;7.00;1.80;;;;;;;;;;5470691;26;20027;-78
2024/04/10 15:21:46;;;;;;;9.82;2.38;;;;;;;;;;5458784;25;20002;-78
2024/04/10 15:24:34;;;;;;;4.97;1.60;;;;;;;;;;5455129;25;20006;-77
2024/04/10 15:27:19;;;;;;;6.32;1.90;;;;;;;;;;5462965;26;20513;-77
2024/04/10 15:30:05;;;;;;;3.97;1.38;;;;;;;;;;5463048;25;20017;-77
2024/04/10 15:32:50;;;;;;;5.93;1.92;;;;;;;;;;5468639;26;20483;-77
2024/04/10 15:35:35;;;;;;;7.85;1.73;;;;;;;;;;5466188;25;20017;-76
2024/04/10 15:38:20;;;;;;;3.55;1.55;;;;;;;;;;5475998;26;20350;-77
2024/04/10 15:41:07;;;;;;;10.95;2.15;;;;;;;;;;5468383;26;20004;-78
2024/04/10 15:43:52;;;;;;;7.13;2.65;;;;;;;;;;5472448;26;20009;-78
2024/04/10 15:46:37;;;;;;;5.85;2.35;;;;;;;;;;5479771;26;20444;-78
2024/04/10 15:49:24;;;;;;;5.53;1.52;;;;;;;;;;5466280;25;19993;-77
2024/04/10 15:52:09;;;;;;;9.18;1.80;;;;;;;;;;5479459;26;19994;-77
2024/04/10 15:54:57;;;;;;;4.80;1.63;;;;;;;;;;5461748;25;19990;-78
2024/04/10 15:57:43;;;;;;;7.88;1.70;;;;;;;;;;5466510;26;20009;-78
2024/04/10 16:00:28;;;;;;;7.00;2.10;;;;;;;;;;5480173;26;20119;-83
2024/04/10 16:03:13;;;;;;;3.53;1.50;;;;;;;;;;5466564;25;20013;-83
2024/04/10 16:06:03;;;;;;;4.07;1.73;;;;;;;;;;5482103;26;20017;-77
2024/04/10 16:08:49;;;;;;;8.77;2.15;;;;;;;;;;5462298;25;20006;-78
2024/04/10 16:11:39;;;;;;;8.18;2.55;;;;;;;;;;5467656;25;20040;-78
2024/04/10 16:14:25;;;;;;;9.60;2.85;;;;;;;;;;5477255;25;20024;-78
2024/04/10 16:17:10;;;;;;;4.65;1.88;;;;;;;;;;5481194;26;20046;-79
2024/04/10 16:19:56;;;;;;;8.23;2.08;;;;;;;;;;5463890;26;20006;-79
2024/04/10 16:22:41;;;;;;;11.48;3.05;;;;;;;;;;5475991;25;20005;-78
2024/04/10 16:25:27;;;;;;;6.20;1.88;;;;;;;;;;5476500;26;20010;-78
2024/04/10 16:28:12;;;;;;;4.20;1.58;;;;;;;;;;5475840;25;20064;-79
2024/04/10 16:30:58;;;;;;;2.70;1.40;;;;;;;;;;5459229;26;20069;-79
2024/04/10 16:33:47;;;;;;;4.13;2.05;;;;;;;;;;5475998;26;20006;-79
2024/04/10 16:36:32;;;;;;;5.38;1.95;;;;;;;;;;5475761;25;20002;-79
2024/04/10 16:39:18;;;;;;;7.95;2.25;;;;;;;;;;5486731;26;20009;-78